Time;durP1;ratioP1;P1;durP2;ratioP2;P2;SDS_P1;SDS_P2;PMS_P1;PMS_P2;Temp;Humidity;BMP_temperature;BMP_pressure;BME280_temperature;BME280_humidity;BME280_pressure;Samples;Min_cycle;Max_cycle;Signal;HPM_P1;HPM_P2
2023/05/03 00:02:12;;;;;;;43.00;23.87;;;10.30;99.90;;;;;;4442895;28;658956;-69
2023/05/03 00:05:00;;;;;;;42.27;23.77;;;10.20;99.90;;;;;;4436400;28;659061;-69
2023/05/03 00:07:47;;;;;;;42.70;23.40;;;10.20;99.90;;;;;;4444430;28;659953;-69
2023/05/03 00:10:35;;;;;;;38.80;23.47;;;10.20;99.90;;;;;;4440451;28;658814;-69
2023/05/03 00:13:23;;;;;;;40.10;23.90;;;10.10;99.90;;;;;;4417754;28;660291;-69
2023/05/03 00:16:10;;;;;;;37.97;23.63;;;10.10;99.90;;;;;;4423607;28;659406;-70
2023/05/03 00:18:58;;;;;;;39.10;22.97;;;10.20;99.90;;;;;;4444031;28;658900;-70
2023/05/03 00:21:46;;;;;;;40.53;23.50;;;10.10;99.90;;;;;;4424443;28;658756;-69
2023/05/03 00:24:33;;;;;;;41.73;23.10;;;10.00;99.90;;;;;;4443387;28;659047;-69
2023/05/03 00:27:20;;;;;;;37.53;23.03;;;10.10;99.90;;;;;;4424499;28;658560;-68
2023/05/03 00:30:10;;;;;;;39.47;22.60;;;10.10;99.90;;;;;;4444641;28;659900;-69
2023/05/03 00:32:57;;;;;;;40.20;22.83;;;10.10;99.90;;;;;;4415957;28;660024;-69
2023/05/03 00:35:45;;;;;;;41.70;22.77;;;10.00;99.90;;;;;;4437912;28;658659;-69
2023/05/03 00:38:32;;;;;;;40.23;21.90;;;10.00;99.90;;;;;;4442207;28;660619;-70
2023/05/03 00:41:22;;;;;;;42.83;23.13;;;10.10;99.90;;;;;;4435415;28;658773;-68
2023/05/03 00:44:09;;;;;;;41.03;22.23;;;10.00;99.90;;;;;;4439328;28;659031;-69
2023/05/03 00:46:57;;;;;;;39.27;21.80;;;10.10;99.90;;;;;;4423728;28;659166;-68
2023/05/03 00:49:45;;;;;;;41.60;22.73;;;10.20;99.90;;;;;;4440168;28;659511;-69
2023/05/03 00:52:32;;;;;;;40.67;23.07;;;10.10;99.90;;;;;;4420873;28;659629;-69
2023/05/03 00:55:19;;;;;;;42.50;22.90;;;10.10;99.90;;;;;;4443516;28;659370;-69
2023/05/03 00:58:06;;;;;;;43.27;22.93;;;10.10;99.90;;;;;;4420135;28;658818;-69
2023/05/03 01:00:54;;;;;;;35.40;21.37;;;10.10;99.90;;;;;;4439816;28;658745;-69
2023/05/03 01:03:45;;;;;;;42.03;23.13;;;10.10;99.90;;;;;;4418873;28;658788;-69
2023/05/03 01:06:35;;;;;;;43.60;23.07;;;10.00;99.90;;;;;;4417077;28;660109;-69
2023/05/03 01:09:23;;;;;;;42.10;22.53;;;10.00;99.90;;;;;;4418216;28;659567;-69
2023/05/03 01:12:19;;;;;;;37.80;23.47;;;10.00;99.90;;;;;;4423304;28;658587;-69
2023/05/03 01:15:08;;;;;;;41.87;22.10;;;10.10;99.90;;;;;;4419670;28;658421;-69
2023/05/03 01:17:58;;;;;;;45.90;23.77;;;10.10;99.90;;;;;;4419929;28;658578;-69
2023/05/03 01:20:48;;;;;;;39.90;22.63;;;10.10;99.90;;;;;;4420157;28;658490;-69
2023/05/03 01:23:40;;;;;;;46.47;23.50;;;10.10;99.90;;;;;;4427156;28;658888;-69
2023/05/03 01:26:28;;;;;;;42.13;23.83;;;10.10;99.90;;;;;;4416249;28;658391;-69
2023/05/03 01:29:16;;;;;;;42.03;23.27;;;10.10;99.90;;;;;;4421474;28;658766;-69
2023/05/03 01:32:04;;;;;;;41.97;24.27;;;10.10;99.90;;;;;;4443808;28;659262;-69
2023/05/03 01:35:02;;;;;;;45.80;24.57;;;10.10;99.90;;;;;;4418423;28;658926;-69
2023/05/03 01:37:49;;;;;;;43.13;23.07;;;10.00;99.90;;;;;;4416204;28;659375;-69
2023/05/03 01:40:40;;;;;;;53.03;25.23;;;10.00;99.90;;;;;;4419810;28;658444;-68
2023/05/03 01:43:30;;;;;;;39.50;24.13;;;10.00;99.90;;;;;;4417220;28;658792;-69
2023/05/03 01:46:17;;;;;;;44.50;24.27;;;10.00;99.90;;;;;;4414564;28;660193;-69
2023/05/03 01:49:04;;;;;;;39.93;23.97;;;9.90;99.90;;;;;;4437880;28;658566;-70
2023/05/03 01:51:52;;;;;;;47.10;23.40;;;10.00;99.90;;;;;;4419866;28;657847;-69
2023/05/03 01:54:39;;;;;;;40.17;23.43;;;9.90;99.90;;;;;;4440485;28;658853;-69
2023/05/03 01:57:26;;;;;;;41.07;22.40;;;9.90;99.90;;;;;;4416716;28;658274;-70
2023/05/03 02:00:16;;;;;;;41.50;23.47;;;9.90;99.90;;;;;;4439957;28;658294;-69
2023/05/03 02:03:03;;;;;;;60.63;28.37;;;9.90;99.90;;;;;;4418628;28;658206;-69
2023/05/03 02:05:50;;;;;;;40.83;22.90;;;10.00;99.90;;;;;;4419153;28;657944;-68
2023/05/03 02:08:37;;;;;;;37.27;22.13;;;10.00;99.90;;;;;;4444600;28;659680;-70
2023/05/03 02:11:24;;;;;;;38.80;22.23;;;9.90;99.90;;;;;;4438295;28;658240;-69
2023/05/03 02:14:12;;;;;;;36.53;21.57;;;9.80;99.90;;;;;;4420919;28;659008;-69
2023/05/03 02:17:01;;;;;;;39.80;22.37;;;9.80;99.90;;;;;;4433646;28;657059;-69
2023/05/03 02:19:49;;;;;;;40.93;23.20;;;9.70;99.90;;;;;;4359595;28;657927;-70
2023/05/03 02:22:36;;;;;;;42.90;22.13;;;9.70;99.90;;;;;;4362874;28;658845;-69
2023/05/03 02:25:23;;;;;;;44.87;23.37;;;9.60;99.90;;;;;;4383912;28;657383;-68
2023/05/03 02:28:10;;;;;;;45.10;24.50;;;9.60;99.90;;;;;;4381420;28;658126;-69
2023/05/03 02:30:58;;;;;;;42.57;24.00;;;9.70;99.90;;;;;;4437756;28;659402;-70
2023/05/03 02:33:47;;;;;;;42.20;22.73;;;9.70;99.90;;;;;;4434634;28;657582;-69
2023/05/03 02:36:34;;;;;;;44.73;22.90;;;9.80;99.90;;;;;;4444178;28;657056;-70
2023/05/03 02:39:21;;;;;;;43.83;24.57;;;9.80;99.90;;;;;;4419547;28;657982;-69
2023/05/03 02:42:08;;;;;;;46.20;24.90;;;9.80;99.90;;;;;;4437750;28;659037;-69
2023/05/03 02:44:56;;;;;;;39.10;23.63;;;9.80;99.90;;;;;;4419433;28;657426;-69
2023/05/03 02:47:43;;;;;;;41.27;23.27;;;9.80;99.90;;;;;;4441716;28;657755;-69
2023/05/03 02:50:32;;;;;;;39.38;23.30;;;9.80;99.90;;;;;;4425124;28;657827;-69
2023/05/03 02:53:19;;;;;;;43.40;23.90;;;9.70;99.90;;;;;;4440331;28;657641;-69
2023/05/03 02:56:08;;;;;;;40.37;23.87;;;9.70;99.90;;;;;;4423979;28;658130;-69
2023/05/03 02:58:55;;;;;;;39.60;23.37;;;9.80;99.90;;;;;;4419466;28;657763;-70
2023/05/03 03:01:42;;;;;;;43.07;23.97;;;9.80;99.90;;;;;;4441155;28;658760;-70
2023/05/03 03:04:30;;;;;;;42.13;25.03;;;9.90;99.90;;;;;;4436667;28;657863;-69
2023/05/03 03:07:19;;;;;;;45.43;24.93;;;9.80;99.90;;;;;;4449114;28;658256;-69
2023/05/03 03:10:07;;;;;;;44.83;24.53;;;9.90;99.90;;;;;;4423981;28;658334;-69
2023/05/03 03:12:54;;;;;;;41.33;22.93;;;9.90;99.90;;;;;;4444501;28;657650;-70
2023/05/03 03:15:42;;;;;;;44.40;25.57;;;9.90;99.90;;;;;;4427421;28;658394;-69
2023/05/03 03:18:29;;;;;;;44.63;25.03;;;9.90;99.90;;;;;;4442462;28;657505;-70
2023/05/03 03:21:16;;;;;;;38.93;23.60;;;9.90;99.90;;;;;;4421987;28;657553;-69
2023/05/03 03:24:05;;;;;;;39.40;23.67;;;9.90;99.90;;;;;;4448826;28;659620;-69
2023/05/03 03:26:52;;;;;;;41.23;23.20;;;9.90;99.90;;;;;;4417161;28;658370;-69
2023/05/03 03:29:40;;;;;;;40.47;23.03;;;9.90;99.90;;;;;;4440759;28;657316;-69
2023/05/03 03:32:27;;;;;;;40.93;23.83;;;10.00;99.90;;;;;;4442788;28;658962;-69
2023/05/03 03:35:15;;;;;;;39.87;21.37;;;9.90;99.90;;;;;;4434720;28;658690;-69
2023/05/03 03:38:02;;;;;;;42.50;23.53;;;9.80;99.90;;;;;;4446807;28;659046;-69
2023/05/03 03:40:53;;;;;;;40.50;24.40;;;9.80;99.90;;;;;;4440575;28;657867;-69
2023/05/03 03:43:40;;;;;;;42.03;23.40;;;9.90;99.90;;;;;;4433202;28;658180;-69
2023/05/03 03:46:27;;;;;;;44.33;24.27;;;9.90;99.90;;;;;;4440581;28;658837;-69
2023/05/03 03:49:15;;;;;;;48.73;25.03;;;10.00;99.90;;;;;;4444968;28;657548;-69
2023/05/03 03:52:02;;;;;;;43.33;24.57;;;10.00;99.90;;;;;;4420918;28;659430;-70
2023/05/03 03:54:49;;;;;;;44.53;24.43;;;10.00;99.90;;;;;;4443029;28;658989;-69
2023/05/03 03:57:38;;;;;;;39.97;23.73;;;10.00;99.90;;;;;;4423942;28;659638;-69
2023/05/03 04:00:25;;;;;;;39.90;23.63;;;10.00;99.90;;;;;;4434366;28;658733;-69
2023/05/03 04:03:12;;;;;;;44.43;24.40;;;10.00;99.90;;;;;;4437287;28;659726;-69
2023/05/03 04:05:59;;;;;;;42.07;25.00;;;10.00;99.90;;;;;;4439756;28;659511;-70
2023/05/03 04:08:47;;;;;;;48.17;25.43;;;10.10;99.90;;;;;;4422448;28;659805;-69
2023/05/03 04:11:34;;;;;;;44.17;25.70;;;10.10;99.90;;;;;;4438063;28;658704;-69
2023/05/03 04:14:22;;;;;;;46.17;25.53;;;10.10;99.90;;;;;;4419052;28;659931;-69
2023/05/03 04:17:10;;;;;;;46.57;26.07;;;10.20;99.90;;;;;;4436651;28;658403;-69
2023/05/03 04:19:58;;;;;;;46.73;24.27;;;10.20;99.90;;;;;;4443174;28;659193;-69
2023/05/03 04:22:45;;;;;;;39.83;23.37;;;10.20;99.90;;;;;;4434485;28;658568;-69
2023/05/03 04:25:33;;;;;;;46.07;24.07;;;10.30;99.90;;;;;;4446528;28;659540;-69
2023/05/03 04:28:20;;;;;;;44.87;24.83;;;10.20;99.90;;;;;;4430196;28;658482;-69
2023/05/03 04:31:09;;;;;;;40.20;24.30;;;10.30;99.90;;;;;;4442768;28;660503;-69
2023/05/03 04:33:56;;;;;;;43.80;26.10;;;10.30;99.90;;;;;;4418631;28;658908;-69
2023/05/03 04:36:45;;;;;;;48.23;25.67;;;10.30;99.90;;;;;;4423660;28;659231;-70
2023/05/03 04:39:32;;;;;;;47.80;26.03;;;10.30;99.90;;;;;;4403446;28;659009;-69
2023/05/03 04:42:19;;;;;;;52.13;27.50;;;10.30;99.90;;;;;;4423435;28;659120;-69
2023/05/03 04:45:08;;;;;;;49.60;28.77;;;10.30;99.90;;;;;;4406843;28;658814;-69
2023/05/03 04:47:57;;;;;;;52.40;27.17;;;10.30;99.90;;;;;;4406802;28;659564;-68
2023/05/03 04:50:45;;;;;;;47.33;27.60;;;10.30;99.90;;;;;;4425354;28;658534;-70
2023/05/03 04:53:32;;;;;;;51.20;27.80;;;10.30;99.90;;;;;;4397501;28;659512;-69
2023/05/03 04:56:24;;;;;;;57.87;30.13;;;10.30;99.90;;;;;;4419120;28;658401;-69
2023/05/03 04:59:12;;;;;;;51.83;29.67;;;10.40;99.90;;;;;;4380191;28;659147;-69
2023/05/03 05:01:59;;;;;;;55.47;29.63;;;10.40;99.90;;;;;;4426182;28;658371;-69
2023/05/03 05:04:47;;;;;;;49.13;28.17;;;10.40;99.90;;;;;;4404137;28;658866;-69
2023/05/03 05:07:35;;;;;;;51.20;27.90;;;10.40;99.90;;;;;;4421922;28;658734;-69
2023/05/03 05:10:22;;;;;;;45.23;24.53;;;10.40;99.90;;;;;;4422884;28;660002;-69
2023/05/03 05:13:10;;;;;;;50.00;25.83;;;10.40;99.90;;;;;;4420351;28;658604;-69
2023/05/03 05:15:57;;;;;;;51.47;25.83;;;10.50;99.90;;;;;;4427567;28;659152;-72
2023/05/03 05:18:45;;;;;;;44.80;23.57;;;10.50;99.90;;;;;;4424379;28;658572;-69
2023/05/03 05:21:34;;;;;;;51.27;24.77;;;10.50;99.90;;;;;;4424898;28;660099;-71
2023/05/03 05:24:21;;;;;;;41.73;20.70;;;10.50;99.90;;;;;;4407290;28;659212;-70
2023/05/03 05:27:08;;;;;;;32.20;17.85;;;10.60;99.90;;;;;;4421570;28;659561;-71
2023/05/03 05:29:56;;;;;;;40.70;18.87;;;10.60;99.90;;;;;;4403335;28;658768;-71
2023/05/03 05:32:43;;;;;;;30.47;15.57;;;10.60;99.90;;;;;;4426370;28;658948;-71
2023/05/03 05:35:30;;;;;;;23.35;12.70;;;10.60;99.90;;;;;;4408001;28;658437;-69
2023/05/03 05:38:19;;;;;;;32.33;12.03;;;10.60;99.90;;;;;;4439655;28;659855;-71
2023/05/03 05:41:06;;;;;;;22.67;12.53;;;10.50;99.90;;;;;;4411338;28;659077;-69
2023/05/03 05:43:53;;;;;;;33.13;14.37;;;10.60;99.90;;;;;;4437869;28;659833;-70
2023/05/03 05:46:40;;;;;;;23.80;12.30;;;10.60;99.90;;;;;;4419543;28;658665;-70
2023/05/03 05:49:27;;;;;;;24.67;10.87;;;10.60;99.90;;;;;;4438494;28;660175;-71
2023/05/03 05:52:15;;;;;;;16.87;9.97;;;10.50;99.90;;;;;;4436995;28;658964;-70
2023/05/03 05:55:05;;;;;;;14.70;8.53;;;10.60;99.90;;;;;;4437757;28;658138;-71
2023/05/03 05:57:53;;;;;;;22.10;10.17;;;10.50;99.90;;;;;;4413976;28;658105;-72
2023/05/03 06:00:40;;;;;;;20.43;8.90;;;10.50;99.90;;;;;;4429607;28;658784;-71
2023/05/03 06:03:28;;;;;;;14.73;8.40;;;10.50;99.90;;;;;;4437054;28;659595;-71
2023/05/03 06:06:15;;;;;;;26.60;10.13;;;10.50;99.90;;;;;;4435685;28;657580;-70
2023/05/03 06:09:02;;;;;;;14.57;8.33;;;10.50;99.90;;;;;;4443321;28;658737;-71
2023/05/03 06:11:51;;;;;;;13.73;7.73;;;10.40;99.90;;;;;;4436357;28;658419;-70
2023/05/03 06:14:39;;;;;;;15.23;8.10;;;10.40;99.90;;;;;;4439335;28;657734;-72
2023/05/03 06:17:26;;;;;;;17.13;8.17;;;10.40;99.90;;;;;;4419687;28;657853;-71
2023/05/03 06:20:13;;;;;;;21.03;8.37;;;10.40;99.90;;;;;;4437790;28;658978;-70
2023/05/03 06:23:00;;;;;;;15.47;8.90;;;10.50;99.90;;;;;;4417897;28;659301;-70
2023/05/03 06:25:47;;;;;;;17.57;8.37;;;10.40;99.90;;;;;;4437062;28;659268;-71
2023/05/03 06:28:36;;;;;;;15.23;8.00;;;10.40;99.90;;;;;;4431730;28;657787;-69
2023/05/03 06:31:24;;;;;;;15.53;9.13;;;10.50;99.90;;;;;;4436376;28;658509;-70
2023/05/03 06:34:11;;;;;;;19.73;9.27;;;10.50;99.90;;;;;;4413247;28;657670;-71
2023/05/03 06:36:58;;;;;;;13.30;8.20;;;10.50;99.90;;;;;;4425265;28;658538;-70
2023/05/03 06:39:45;;;;;;;14.93;8.23;;;10.50;99.90;;;;;;4420386;28;657662;-71
2023/05/03 06:42:32;;;;;;;12.90;8.17;;;10.60;99.90;;;;;;4434906;28;658853;-71
2023/05/03 06:45:22;;;;;;;14.13;7.80;;;10.70;99.90;;;;;;4434488;28;657761;-70
2023/05/03 06:48:09;;;;;;;15.43;7.83;;;10.80;99.90;;;;;;4439568;28;658159;-71
2023/05/03 06:50:56;;;;;;;10.97;7.30;;;10.80;99.90;;;;;;4415388;28;657549;-69
2023/05/03 06:53:45;;;;;;;11.43;7.30;;;10.80;99.90;;;;;;4439543;28;658547;-71
2023/05/03 06:56:32;;;;;;;13.73;7.47;;;10.80;99.90;;;;;;4415842;28;659040;-71
2023/05/03 06:59:19;;;;;;;12.83;8.50;;;10.90;99.90;;;;;;4437800;28;658096;-70
2023/05/03 07:02:07;;;;;;;17.67;10.15;;;10.90;99.90;;;;;;4419304;28;657589;-70
2023/05/03 07:04:55;;;;;;;19.50;10.80;;;10.90;99.90;;;;;;4432396;28;658814;-70
2023/05/03 07:07:42;;;;;;;18.97;10.70;;;11.00;99.90;;;;;;4435214;28;658948;-69
2023/05/03 07:10:30;;;;;;;17.03;10.60;;;11.00;99.90;;;;;;4439492;28;659054;-71
2023/05/03 07:13:17;;;;;;;17.23;10.93;;;11.10;99.90;;;;;;4416672;28;659713;-70
2023/05/03 07:16:05;;;;;;;25.13;12.47;;;11.10;99.90;;;;;;4440761;28;658292;-70
2023/05/03 07:18:53;;;;;;;23.77;13.57;;;11.20;99.90;;;;;;4412865;28;660442;-71
2023/05/03 07:21:41;;;;;;;21.87;13.17;;;11.30;99.90;;;;;;4420904;28;658921;-71
2023/05/03 07:24:28;;;;;;;22.97;12.57;;;11.40;99.90;;;;;;4440104;28;659342;-71
2023/05/03 07:27:15;;;;;;;20.37;13.13;;;11.50;99.90;;;;;;4411080;28;659041;-71
2023/05/03 07:30:03;;;;;;;22.20;12.73;;;11.40;99.90;;;;;;4431679;28;661289;-71
2023/05/03 07:32:50;;;;;;;22.37;14.30;;;11.50;99.90;;;;;;4419802;28;660569;-71
2023/05/03 07:35:39;;;;;;;21.30;12.50;;;11.60;99.90;;;;;;4438395;28;659529;-73
2023/05/03 07:38:26;;;;;;;21.53;12.30;;;11.70;99.90;;;;;;4414251;28;658462;-72
2023/05/03 07:41:13;;;;;;;20.37;13.17;;;11.70;99.90;;;;;;4442237;28;658482;-72
2023/05/03 07:44:01;;;;;;;18.97;12.27;;;11.70;99.90;;;;;;4416758;28;658237;-72
2023/05/03 07:46:48;;;;;;;16.00;12.03;;;11.60;99.90;;;;;;4439804;28;659500;-71
2023/05/03 07:49:37;;;;;;;20.40;13.30;;;11.70;99.90;;;;;;4423954;28;658716;-70
2023/05/03 07:52:26;;;;;;;19.63;12.63;;;11.80;99.90;;;;;;4438133;28;658689;-72
2023/05/03 07:55:13;;;;;;;19.90;12.80;;;12.00;99.90;;;;;;4416088;28;658624;-69
2023/05/03 07:58:00;;;;;;;21.23;13.73;;;12.00;99.90;;;;;;4424364;28;658837;-70
2023/05/03 08:00:48;;;;;;;19.70;12.87;;;12.00;99.90;;;;;;4435569;28;659762;-72
2023/05/03 08:03:35;;;;;;;21.73;13.27;;;11.90;99.90;;;;;;4429982;28;658631;-71
2023/05/03 08:06:23;;;;;;;20.73;12.97;;;12.00;99.90;;;;;;4437837;28;660623;-71
2023/05/03 08:09:12;;;;;;;18.20;12.40;;;11.70;99.90;;;;;;4423448;28;658451;-70
2023/05/03 08:12:01;;;;;;;22.80;12.40;;;11.80;99.90;;;;;;4429549;28;658775;-71
2023/05/03 08:14:48;;;;;;;19.57;12.60;;;12.00;99.90;;;;;;4415465;28;658791;-72
2023/05/03 08:17:40;;;;;;;22.80;12.83;;;12.10;99.90;;;;;;4415958;28;659047;-69
2023/05/03 08:20:28;;;;;;;17.87;11.37;;;12.40;99.90;;;;;;4379774;28;659511;-69
2023/05/03 08:23:15;;;;;;;17.30;11.37;;;12.40;99.90;;;;;;4312614;28;658796;-71
2023/05/03 08:26:04;;;;;;;20.23;11.00;;;12.30;99.90;;;;;;4329740;28;658797;-70
2023/05/03 08:28:51;;;;;;;19.57;11.33;;;12.20;99.90;;;;;;4333008;28;659011;-71
2023/05/03 08:31:38;;;;;;;15.05;10.40;;;12.20;99.90;;;;;;4422141;28;659356;-71
2023/05/03 08:34:25;;;;;;;14.10;9.60;;;12.30;99.90;;;;;;4415503;28;658515;-70
2023/05/03 08:37:13;;;;;;;18.67;10.07;;;12.40;99.90;;;;;;4438765;28;658310;-70
2023/05/03 08:40:03;;;;;;;15.47;9.50;;;12.40;99.90;;;;;;4428177;28;658057;-70
2023/05/03 08:42:52;;;;;;;18.83;9.37;;;12.70;99.90;;;;;;4417561;28;658763;-70
2023/05/03 08:45:39;;;;;;;14.57;8.27;;;12.80;99.90;;;;;;4433099;28;659285;-70
2023/05/03 08:48:27;;;;;;;14.97;7.80;;;13.00;99.90;;;;;;4418867;28;657584;-70
2023/05/03 08:51:14;;;;;;;14.67;8.00;;;13.00;99.90;;;;;;4440185;28;658569;-71
2023/05/03 08:54:02;;;;;;;15.87;7.23;;;12.90;99.90;;;;;;4421244;28;657731;-70
2023/05/03 08:56:49;;;;;;;17.07;7.47;;;12.90;99.90;;;;;;4436771;28;658061;-71
2023/05/03 08:59:48;;;;;;;11.63;6.57;;;13.10;99.90;;;;;;4417646;28;657606;-71
2023/05/03 09:02:37;;;;;;;12.43;6.50;;;13.20;99.90;;;;;;4390083;28;657846;-70
2023/05/03 09:05:34;;;;;;;16.13;6.10;;;13.30;99.90;;;;;;4437980;28;657579;-71
2023/05/03 09:08:22;;;;;;;11.57;5.30;;;13.20;99.90;;;;;;4391069;28;658319;-71
2023/05/03 09:11:19;;;;;;;13.17;5.33;;;13.00;99.90;;;;;;4438599;28;657387;-72
2023/05/03 09:14:11;;;;;;;18.80;7.20;;;13.10;99.90;;;;;;4420437;28;657730;-73
2023/05/03 09:17:16;;;;;;;33.03;8.83;;;13.30;99.90;;;;;;4413190;28;657687;-73
2023/05/03 09:20:05;;;;;;;20.20;7.07;;;13.40;99.90;;;;;;4410954;28;658031;-75
2023/05/03 09:22:54;;;;;;;19.83;7.27;;;13.40;99.90;;;;;;4413699;28;657706;-74
2023/05/03 09:25:43;;;;;;;13.27;6.47;;;13.50;99.90;;;;;;4422786;28;657568;-74
2023/05/03 09:28:39;;;;;;;14.23;6.20;;;13.50;99.90;;;;;;4424309;28;658078;-72
2023/05/03 09:31:27;;;;;;;18.77;6.53;;;13.70;99.90;;;;;;4421913;28;658479;-75
2023/05/03 09:34:23;;;;;;;13.03;6.30;;;13.80;99.90;;;;;;4433725;28;657769;-73
2023/05/03 09:37:10;;;;;;;12.77;7.27;;;13.90;99.90;;;;;;4408486;28;657399;-72
2023/05/03 09:40:06;;;;;;;31.80;10.33;;;14.00;99.90;;;;;;4436982;28;658018;-73
2023/05/03 09:43:10;;;;;;;21.87;8.33;;;14.10;99.90;;;;;;4413620;28;659661;-74
2023/05/03 09:46:08;;;;;;;16.13;7.23;;;14.00;99.90;;;;;;4392983;28;658419;-74
2023/05/03 09:48:56;;;;;;;15.07;6.57;;;14.00;99.90;;;;;;4394941;28;657911;-72
2023/05/03 09:51:44;;;;;;;16.93;6.80;;;14.00;99.90;;;;;;4434775;28;658416;-73
2023/05/03 09:54:32;;;;;;;19.83;8.53;;;13.90;99.90;;;;;;4416180;28;657443;-73
2023/05/03 09:57:19;;;;;;;13.00;5.80;;;13.90;99.90;;;;;;4437170;28;658127;-73
2023/05/03 10:00:09;;;;;;;9.00;5.37;;;13.70;99.90;;;;;;4417651;28;658011;-73
2023/05/03 10:02:58;;;;;;;12.93;6.57;;;13.60;99.90;;;;;;4420421;28;656964;-73
2023/05/03 10:05:46;;;;;;;11.47;6.47;;;13.70;99.90;;;;;;4420359;28;658037;-72
2023/05/03 10:08:38;;;;;;;10.00;5.57;;;13.50;99.90;;;;;;4435285;28;658337;-74
2023/05/03 10:11:26;;;;;;;11.70;5.70;;;13.40;99.90;;;;;;4401667;28;657764;-73
2023/05/03 10:14:13;;;;;;;10.77;5.20;;;13.50;99.90;;;;;;4437988;28;658094;-72
2023/05/03 10:17:02;;;;;;;11.73;5.47;;;13.50;99.90;;;;;;4421448;28;657751;-74
2023/05/03 10:19:52;;;;;;;18.20;6.20;;;13.50;99.90;;;;;;4438945;28;657915;-74
2023/05/03 10:23:10;;;;;;;13.73;5.53;;;13.40;99.90;;;;;;4417370;28;658264;-73
2023/05/03 10:26:15;;;;;;;22.63;6.50;;;13.20;99.90;;;;;;4383919;28;658293;-74
2023/05/03 10:29:02;;;;;;;11.70;5.63;;;13.00;99.90;;;;;;4393233;28;659316;-73
2023/05/03 10:31:49;;;;;;;10.93;5.07;;;12.90;99.90;;;;;;4438402;28;658061;-73
2023/05/03 10:34:39;;;;;;;9.97;5.10;;;12.80;99.90;;;;;;4419924;28;657944;-75
2023/05/03 10:37:26;;;;;;;11.30;4.57;;;12.70;99.90;;;;;;4404547;28;656480;-73
2023/05/03 10:40:15;;;;;;;10.77;4.83;;;12.50;99.90;;;;;;4440422;28;657920;-74
2023/05/03 10:43:03;;;;;;;10.03;5.00;;;12.40;99.90;;;;;;4412977;28;658979;-75
2023/05/03 10:45:51;;;;;;;14.97;5.47;;;12.20;99.90;;;;;;4417539;28;657109;-73
2023/05/03 10:48:38;;;;;;;10.47;5.13;;;12.20;99.90;;;;;;4429844;28;658782;-74
2023/05/03 10:51:35;;;;;;;13.73;4.77;;;12.20;99.90;;;;;;4423988;28;657410;-73
2023/05/03 10:54:23;;;;;;;13.70;5.27;;;12.30;99.90;;;;;;4390968;28;658355;-74
2023/05/03 10:57:11;;;;;;;9.83;4.70;;;12.20;99.90;;;;;;4434253;28;657698;-73
2023/05/03 11:00:01;;;;;;;35.93;8.93;;;12.20;99.90;;;;;;4445722;28;657145;-76
2023/05/03 11:03:04;;;;;;;14.53;5.80;;;12.20;99.90;;;;;;4416503;28;659275;-73
2023/05/03 11:05:52;;;;;;;15.37;4.90;;;12.30;99.90;;;;;;4396222;28;658068;-73
2023/05/03 11:08:40;;;;;;;11.93;5.43;;;12.20;99.90;;;;;;4439923;28;658029;-74
2023/05/03 11:11:27;;;;;;;13.27;5.33;;;12.00;99.90;;;;;;4414517;28;659536;-74
2023/05/03 11:14:14;;;;;;;10.43;5.40;;;12.10;99.90;;;;;;4441304;28;659337;-74
2023/05/03 11:17:03;;;;;;;15.50;5.27;;;12.20;99.90;;;;;;4420098;28;657198;-73
2023/05/03 11:19:50;;;;;;;12.63;5.87;;;12.20;99.90;;;;;;4414506;28;657942;-72
2023/05/03 11:22:37;;;;;;;15.23;6.20;;;12.20;99.90;;;;;;4443006;28;658242;-74
2023/05/03 11:25:25;;;;;;;20.13;5.87;;;12.20;99.90;;;;;;4438355;28;657980;-73
2023/05/03 11:28:13;;;;;;;10.43;5.93;;;12.20;99.90;;;;;;4416789;28;658962;-72
2023/05/03 11:31:01;;;;;;;13.13;5.87;;;12.20;99.90;;;;;;4430653;28;658039;-73
2023/05/03 11:33:50;;;;;;;12.30;5.90;;;12.30;99.90;;;;;;4438162;28;658204;-74
2023/05/03 11:36:37;;;;;;;18.37;5.73;;;12.40;99.90;;;;;;4410803;28;658954;-74
2023/05/03 11:39:24;;;;;;;12.97;6.20;;;12.50;99.90;;;;;;4441735;28;657586;-74
2023/05/03 11:42:12;;;;;;;57.80;13.90;;;12.60;99.90;;;;;;4421355;28;658115;-73
2023/05/03 11:45:00;;;;;;;33.43;9.53;;;12.70;99.90;;;;;;4444295;28;658709;-74
2023/05/03 11:47:47;;;;;;;12.33;6.40;;;12.80;99.90;;;;;;4417568;28;658625;-72
2023/05/03 11:50:46;;;;;;;12.47;5.60;;;12.90;99.90;;;;;;4440435;28;657573;-73
2023/05/03 11:53:33;;;;;;;17.23;6.43;;;12.80;99.90;;;;;;4411188;28;657453;-74
2023/05/03 11:56:21;;;;;;;9.97;5.90;;;12.80;99.90;;;;;;4414448;28;658145;-73
2023/05/03 11:59:09;;;;;;;50.17;11.93;;;12.80;99.90;;;;;;4440317;28;657872;-74
2023/05/03 12:01:56;;;;;;;12.70;6.57;;;12.80;99.90;;;;;;4415633;28;659262;-73
2023/05/03 12:04:43;;;;;;;15.27;5.93;;;12.80;99.90;;;;;;4445673;28;657206;-73
2023/05/03 12:07:32;;;;;;;35.87;11.50;;;12.90;99.90;;;;;;4420769;28;657726;-73
2023/05/03 12:10:19;;;;;;;22.43;7.80;;;12.90;99.90;;;;;;4434052;28;658752;-74
2023/05/03 12:13:07;;;;;;;17.83;7.27;;;12.90;99.90;;;;;;4418690;28;658857;-74
2023/05/03 12:15:56;;;;;;;19.23;7.47;;;13.00;99.90;;;;;;4438510;28;658296;-74
2023/05/03 12:18:49;;;;;;;26.07;7.77;;;13.10;99.90;;;;;;4405169;28;657580;-74
2023/05/03 12:21:44;;;;;;;15.10;6.13;;;13.20;99.90;;;;;;4422212;28;657914;-74
2023/05/03 12:24:33;;;;;;;10.93;5.97;;;13.20;99.90;;;;;;4393551;28;658780;-74
2023/05/03 12:27:20;;;;;;;11.00;5.80;;;13.20;99.90;;;;;;4424831;28;657579;-72
2023/05/03 12:30:09;;;;;;;10.80;5.63;;;12.90;99.90;;;;;;4436879;28;658711;-75
2023/05/03 12:32:56;;;;;;;14.57;5.80;;;12.90;99.90;;;;;;4420471;28;657671;-74
2023/05/03 12:35:43;;;;;;;12.50;5.83;;;12.60;99.90;;;;;;4445189;28;658321;-75
2023/05/03 12:38:30;;;;;;;10.57;5.70;;;12.70;99.90;;;;;;4414634;28;657641;-74
2023/05/03 12:41:19;;;;;;;13.97;6.27;;;12.70;99.90;;;;;;4439214;28;658955;-73
2023/05/03 12:44:06;;;;;;;11.90;5.80;;;12.70;99.90;;;;;;4420029;28;657759;-75
2023/05/03 12:46:53;;;;;;;20.03;7.70;;;12.60;99.90;;;;;;4442543;28;658156;-73
2023/05/03 12:49:41;;;;;;;14.57;7.63;;;12.50;99.90;;;;;;4422107;28;657903;-74
2023/05/03 12:52:29;;;;;;;12.83;7.47;;;12.40;99.90;;;;;;4442547;28;658021;-74
2023/05/03 12:55:16;;;;;;;10.97;7.90;;;12.20;99.90;;;;;;4427673;28;658090;-73
2023/05/03 12:58:05;;;;;;;26.20;9.35;;;12.10;99.90;;;;;;4439695;28;658216;-74
2023/05/03 13:00:52;;;;;;;20.47;9.57;;;11.90;99.90;;;;;;4418303;28;658669;-74
2023/05/03 13:03:39;;;;;;;19.47;9.90;;;11.80;99.90;;;;;;4442437;28;657588;-74
2023/05/03 13:06:26;;;;;;;30.83;12.73;;;11.70;99.90;;;;;;4415611;28;658444;-73
2023/05/03 13:09:15;;;;;;;21.53;11.10;;;11.50;99.90;;;;;;4436377;28;659162;-74
2023/05/03 13:12:02;;;;;;;21.47;10.20;;;11.50;99.90;;;;;;4410650;28;659912;-74
2023/05/03 13:14:52;;;;;;;17.27;10.77;;;11.40;99.90;;;;;;4429375;28;659343;-76
2023/05/03 13:17:39;;;;;;;36.53;14.10;;;11.40;99.90;;;;;;4411470;28;658908;-73
2023/05/03 13:20:26;;;;;;;24.30;11.32;;;11.40;99.90;;;;;;4416249;28;659043;-73
2023/05/03 13:23:14;;;;;;;24.10;11.50;;;11.40;99.90;;;;;;4435388;28;658689;-74
2023/05/03 13:26:01;;;;;;;20.43;11.67;;;11.40;99.90;;;;;;4416280;28;660065;-76
2023/05/03 13:28:48;;;;;;;18.67;10.50;;;11.50;99.90;;;;;;4438135;28;659313;-75
2023/05/03 13:31:37;;;;;;;20.30;10.40;;;11.50;99.90;;;;;;4416798;28;658773;-74
2023/05/03 13:34:25;;;;;;;16.63;10.90;;;11.60;99.90;;;;;;4436742;28;659030;-72
2023/05/03 13:37:17;;;;;;;19.30;11.37;;;11.60;99.90;;;;;;4412696;28;659123;-74
2023/05/03 13:40:05;;;;;;;19.50;10.50;;;11.70;99.90;;;;;;4420648;28;659089;-74
2023/05/03 13:42:52;;;;;;;19.03;10.57;;;11.70;99.90;;;;;;4420421;28;658555;-74
2023/05/03 13:45:39;;;;;;;18.43;10.03;;;11.90;99.90;;;;;;4443435;28;658103;-74
2023/05/03 13:48:28;;;;;;;15.83;10.20;;;11.90;99.90;;;;;;4410603;28;659189;-75
2023/05/03 13:51:15;;;;;;;24.13;10.40;;;12.00;99.90;;;;;;4416803;28;659223;-73
2023/05/03 13:54:03;;;;;;;20.03;9.90;;;12.00;99.90;;;;;;4434864;28;659852;-73
2023/05/03 13:56:50;;;;;;;23.17;11.87;;;12.10;99.90;;;;;;4420594;28;657612;-74
2023/05/03 13:59:38;;;;;;;18.57;11.00;;;12.30;99.90;;;;;;4435691;28;659770;-75
2023/05/03 14:02:26;;;;;;;17.93;10.93;;;12.30;99.90;;;;;;4432109;28;658729;-73
2023/05/03 14:05:15;;;;;;;30.80;10.83;;;12.40;99.90;;;;;;4433210;28;660296;-73
2023/05/03 14:08:02;;;;;;;13.87;9.07;;;12.50;99.90;;;;;;4418470;28;659549;-73
2023/05/03 14:10:49;;;;;;;20.90;10.40;;;12.60;99.90;;;;;;4435067;28;658563;-73